Time;durP1;ratioP1;P1;durP2;ratioP2;P2;SDS_P1;SDS_P2;PMS_P1;PMS_P2;Temp;Humidity;BMP_temperature;BMP_pressure;BME280_temperature;BME280_humidity;BME280_pressure;Samples;Min_cycle;Max_cycle;Signal;HPM_P1;HPM_P2
2022/11/07 00:02:04;;;;;;;7.80;4.10;;;15.30;99.90;;;;;;5006950;28;20342;-76
2022/11/07 00:04:32;;;;;;;7.80;3.90;;;15.30;99.90;;;;;;5008902;28;20184;-76
2022/11/07 00:06:59;;;;;;;5.50;4.20;;;15.30;99.90;;;;;;4988661;28;20259;-76
2022/11/07 00:09:26;;;;;;;8.40;4.70;;;15.30;99.90;;;;;;5008027;28;20319;-76
2022/11/07 00:11:53;;;;;;;5.53;4.13;;;15.30;99.90;;;;;;5007988;28;20185;-76
2022/11/07 00:14:20;;;;;;;6.27;3.93;;;15.30;99.90;;;;;;4991528;28;20189;-76
2022/11/07 00:16:48;;;;;;;5.57;4.20;;;15.30;99.90;;;;;;4991627;28;20287;-76
2022/11/07 00:19:20;;;;;;;6.13;4.10;;;15.40;99.90;;;;;;5008454;28;20193;-76
2022/11/07 00:21:49;;;;;;;6.83;4.47;;;15.40;99.90;;;;;;5002284;28;20736;-76
2022/11/07 00:24:18;;;;;;;5.43;4.20;;;15.40;99.90;;;;;;5008300;28;20308;-76
2022/11/07 00:26:47;;;;;;;5.27;4.10;;;15.40;99.90;;;;;;5009460;28;20307;-76
2022/11/07 00:29:19;;;;;;;6.63;4.10;;;15.40;99.90;;;;;;5007305;28;20913;-76
2022/11/07 00:31:47;;;;;;;8.80;4.30;;;15.40;99.90;;;;;;5008474;28;20243;-76
2022/11/07 00:34:13;;;;;;;9.67;4.17;;;15.50;99.90;;;;;;4990248;28;20206;-76
2022/11/07 00:36:40;;;;;;;5.07;3.90;;;15.50;99.90;;;;;;5009461;28;20189;-76
2022/11/07 00:39:06;;;;;;;6.30;4.30;;;15.50;99.90;;;;;;5008175;28;20197;-76
2022/11/07 00:41:33;;;;;;;6.17;3.90;;;15.50;99.90;;;;;;5005250;28;20215;-76
2022/11/07 00:44:00;;;;;;;7.53;4.40;;;15.50;99.90;;;;;;4991207;28;20701;-76
2022/11/07 00:46:29;;;;;;;6.47;3.90;;;15.50;99.90;;;;;;5008160;28;20259;-76
2022/11/07 00:48:56;;;;;;;6.37;4.07;;;15.50;99.90;;;;;;5008506;28;20189;-76
2022/11/07 00:51:27;;;;;;;9.23;4.23;;;15.40;99.90;;;;;;5008509;28;20189;-76
2022/11/07 00:53:55;;;;;;;12.30;4.57;;;15.40;99.90;;;;;;4990157;28;20201;-76
2022/11/07 00:56:25;;;;;;;7.70;4.00;;;15.40;99.90;;;;;;4990371;28;20577;-77
2022/11/07 00:58:58;;;;;;;5.27;4.00;;;15.40;99.90;;;;;;5007605;28;20551;-75
2022/11/07 01:01:31;;;;;;;6.00;3.60;;;15.40;99.90;;;;;;4990365;28;20189;-76
2022/11/07 01:06:45;;;;;;;4.40;3.43;;;15.30;99.90;;;;;;5003264;28;20212;-76
2022/11/07 01:09:17;;;;;;;4.07;3.30;;;15.30;99.90;;;;;;5008392;28;20342;-76
2022/11/07 01:11:44;;;;;;;5.43;3.50;;;15.20;99.90;;;;;;4989777;28;20197;-76
2022/11/07 01:14:13;;;;;;;4.33;3.70;;;15.30;99.90;;;;;;5004842;28;20188;-76
2022/11/07 01:16:40;;;;;;;6.37;3.70;;;15.20;99.90;;;;;;5000561;28;20193;-75
2022/11/07 01:19:08;;;;;;;5.13;3.67;;;15.30;99.90;;;;;;4989442;28;20200;-76
2022/11/07 01:21:37;;;;;;;4.70;3.77;;;15.30;99.90;;;;;;5007437;28;20189;-76
2022/11/07 01:24:05;;;;;;;8.00;4.20;;;15.30;99.90;;;;;;5008321;28;20185;-76
2022/11/07 01:26:32;;;;;;;4.97;3.77;;;15.30;99.90;;;;;;4989302;28;20220;-76
2022/11/07 01:28:59;;;;;;;6.23;4.00;;;15.30;99.90;;;;;;5007144;28;20188;-76
2022/11/07 01:31:25;;;;;;;4.93;3.70;;;15.30;99.90;;;;;;4999214;28;20196;-76
2022/11/07 01:33:52;;;;;;;9.47;4.13;;;15.30;99.90;;;;;;5004513;28;20189;-75
2022/11/07 01:36:19;;;;;;;7.70;4.03;;;15.30;99.90;;;;;;5006035;28;20300;-76
2022/11/07 01:38:48;;;;;;;4.47;3.67;;;15.40;99.90;;;;;;5008299;28;20268;-75
2022/11/07 01:41:32;;;;;;;7.57;4.20;;;15.30;99.90;;;;;;4989989;28;20920;-76
2022/11/07 01:44:02;;;;;;;4.90;4.03;;;15.30;99.90;;;;;;5004395;28;20222;-76
2022/11/07 01:46:36;;;;;;;6.57;4.03;;;15.30;99.90;;;;;;5003668;28;20705;-76
2022/11/07 01:49:26;;;;;;;10.70;4.13;;;15.30;99.90;;;;;;5007543;28;20191;-76
2022/11/07 01:52:03;;;;;;;9.50;3.87;;;15.30;99.90;;;;;;5005851;28;20550;-76
2022/11/07 01:54:45;;;;;;;8.63;4.83;;;15.30;99.90;;;;;;4990233;28;20677;-76
2022/11/07 01:57:22;;;;;;;7.67;4.30;;;15.30;99.90;;;;;;5007989;28;20363;-76
2022/11/07 01:59:54;;;;;;;6.97;4.13;;;15.30;99.90;;;;;;5007972;28;20180;-76
2022/11/07 02:02:24;;;;;;;9.70;4.47;;;15.30;99.90;;;;;;5006049;28;20200;-76
2022/11/07 02:04:57;;;;;;;4.67;4.10;;;15.40;99.90;;;;;;5007079;28;20553;-76
2022/11/07 02:07:25;;;;;;;5.63;4.10;;;15.40;99.90;;;;;;5020849;28;20294;-76
2022/11/07 02:09:54;;;;;;;5.37;4.37;;;15.40;99.90;;;;;;4986865;28;20593;-76
2022/11/07 02:12:24;;;;;;;4.47;3.80;;;15.40;99.90;;;;;;5004763;28;20196;-76
2022/11/07 02:14:54;;;;;;;7.40;4.00;;;15.40;99.90;;;;;;5007219;28;20200;-76
2022/11/07 02:17:21;;;;;;;5.33;4.17;;;15.40;99.90;;;;;;5007013;28;20211;-76
2022/11/07 02:19:55;;;;;;;5.27;4.10;;;15.40;99.90;;;;;;5007922;28;20196;-76
2022/11/07 02:22:36;;;;;;;8.43;4.60;;;15.40;99.90;;;;;;5003700;28;20189;-76
2022/11/07 02:25:09;;;;;;;6.97;4.27;;;15.40;99.90;;;;;;4977370;28;20569;-76
2022/11/07 02:27:38;;;;;;;6.13;4.10;;;15.50;99.90;;;;;;4989397;28;20185;-76
2022/11/07 02:30:20;;;;;;;4.93;3.70;;;15.40;99.90;;;;;;4989209;28;20720;-76
2022/11/07 02:32:47;;;;;;;6.77;3.80;;;15.40;99.90;;;;;;5019564;28;20239;-76
2022/11/07 02:35:38;;;;;;;6.33;3.60;;;15.40;99.90;;;;;;4988746;28;20360;-75
2022/11/07 02:38:32;;;;;;;5.70;3.70;;;15.50;99.90;;;;;;4994861;28;20944;-75
2022/11/07 02:41:17;;;;;;;11.33;4.00;;;15.40;99.90;;;;;;5001501;28;20267;-75
2022/11/07 02:43:53;;;;;;;6.00;3.80;;;15.50;99.90;;;;;;5006108;28;20196;-75
2022/11/07 02:46:21;;;;;;;7.47;3.40;;;15.50;99.90;;;;;;5003895;28;20220;-75
2022/11/07 02:48:53;;;;;;;4.77;3.50;;;15.40;99.90;;;;;;4991496;28;20198;-75
2022/11/07 02:51:20;;;;;;;5.17;3.40;;;15.40;99.90;;;;;;5010512;28;20181;-75
2022/11/07 02:53:46;;;;;;;7.73;3.53;;;15.40;99.90;;;;;;5009462;28;20184;-75
2022/11/07 02:56:13;;;;;;;4.40;3.10;;;15.40;99.90;;;;;;5009133;28;20215;-75
2022/11/07 02:58:39;;;;;;;6.33;3.30;;;15.50;99.90;;;;;;5011189;28;20605;-74
2022/11/07 03:01:06;;;;;;;4.90;3.37;;;15.50;99.90;;;;;;5010410;28;20235;-75
2022/11/07 03:03:43;;;;;;;5.47;3.17;;;15.40;99.90;;;;;;5009663;28;20200;-75
2022/11/07 03:06:14;;;;;;;6.37;3.60;;;15.40;99.90;;;;;;5010709;28;20220;-75
2022/11/07 03:08:42;;;;;;;3.97;3.23;;;15.40;99.90;;;;;;5000676;28;20203;-75
2022/11/07 03:11:10;;;;;;;4.13;3.50;;;15.40;99.90;;;;;;4991908;28;20185;-75
2022/11/07 03:13:37;;;;;;;5.37;3.10;;;15.40;99.90;;;;;;4996444;28;20204;-75
2022/11/07 03:16:09;;;;;;;4.63;3.47;;;15.30;99.90;;;;;;5010582;28;20189;-75
2022/11/07 03:18:37;;;;;;;4.60;3.10;;;15.30;99.90;;;;;;4990249;28;20200;-75
2022/11/07 03:21:05;;;;;;;5.60;3.20;;;15.40;99.90;;;;;;5010695;28;20200;-75
2022/11/07 03:23:35;;;;;;;3.50;3.20;;;15.40;99.90;;;;;;4991156;28;20193;-75
2022/11/07 03:26:03;;;;;;;5.23;3.47;;;15.30;99.90;;;;;;4976441;28;20223;-75
2022/11/07 03:28:30;;;;;;;5.90;3.07;;;15.40;99.90;;;;;;5009991;28;20196;-75
2022/11/07 03:31:00;;;;;;;5.50;3.23;;;15.30;99.90;;;;;;4991294;28;20185;-75
2022/11/07 03:33:28;;;;;;;4.40;3.27;;;15.30;99.90;;;;;;4989822;28;20201;-75
2022/11/07 03:35:55;;;;;;;5.30;3.53;;;15.30;99.90;;;;;;5008461;28;20398;-75
2022/11/07 03:38:21;;;;;;;4.73;3.30;;;15.40;99.90;;;;;;5005530;28;20189;-75
2022/11/07 03:40:47;;;;;;;3.70;3.17;;;15.40;99.90;;;;;;5007910;28;21014;-75
2022/11/07 03:43:13;;;;;;;5.77;3.67;;;15.40;99.90;;;;;;5010061;28;20704;-75
2022/11/07 03:45:43;;;;;;;5.63;3.43;;;15.40;99.90;;;;;;4992299;28;20224;-75
2022/11/07 03:48:11;;;;;;;4.17;3.33;;;15.40;99.90;;;;;;5009740;28;20243;-75
2022/11/07 03:50:38;;;;;;;3.70;3.27;;;15.50;99.90;;;;;;5000528;28;20181;-75
2022/11/07 03:53:05;;;;;;;8.67;3.30;;;15.40;99.90;;;;;;5009583;28;20200;-75
2022/11/07 03:55:33;;;;;;;3.73;3.30;;;15.40;99.90;;;;;;4992512;28;20230;-75
2022/11/07 03:57:59;;;;;;;5.37;3.43;;;15.40;99.90;;;;;;5009689;28;20864;-76
2022/11/07 04:00:26;;;;;;;4.93;3.10;;;15.40;99.90;;;;;;4988196;28;20371;-75
2022/11/07 04:02:53;;;;;;;5.73;3.60;;;15.40;99.90;;;;;;5007144;28;20258;-75
2022/11/07 04:05:20;;;;;;;5.23;3.33;;;15.40;99.90;;;;;;5008606;28;20212;-75
2022/11/07 04:07:46;;;;;;;4.57;3.50;;;15.40;99.90;;;;;;5008605;28;20193;-75
2022/11/07 04:10:14;;;;;;;5.80;3.30;;;15.40;99.90;;;;;;5009960;28;20189;-76
2022/11/07 04:18:12;;;;;;;3.33;3.03;;;15.40;99.90;;;;;;5009071;28;20569;-75
2022/11/07 04:20:40;;;;;;;4.53;3.10;;;15.50;99.90;;;;;;4991211;28;20220;-75
2022/11/07 04:23:07;;;;;;;4.60;3.10;;;15.50;99.90;;;;;;5008176;28;20275;-76
2022/11/07 04:28:17;;;;;;;5.30;2.97;;;15.50;99.90;;;;;;5009694;28;20189;-75
2022/11/07 04:30:44;;;;;;;5.20;3.20;;;15.50;99.90;;;;;;5002553;28;20662;-75
2022/11/07 04:33:12;;;;;;;4.03;2.93;;;15.50;99.90;;;;;;4999212;28;20189;-75
2022/11/07 04:35:39;;;;;;;4.83;3.30;;;15.50;99.90;;;;;;5001163;28;20654;-75
2022/11/07 04:38:07;;;;;;;3.50;2.73;;;15.60;99.90;;;;;;5008042;28;20207;-76
2022/11/07 04:40:34;;;;;;;5.87;3.10;;;15.60;99.90;;;;;;4989443;28;20283;-75
2022/11/07 04:43:02;;;;;;;3.37;2.60;;;15.60;99.90;;;;;;5008630;28;20268;-75
2022/11/07 04:45:28;;;;;;;4.17;3.03;;;15.70;99.90;;;;;;5008184;28;20671;-75
2022/11/07 04:47:54;;;;;;;6.03;3.13;;;15.70;99.90;;;;;;5007150;28;20272;-76
2022/11/07 04:50:21;;;;;;;7.40;3.23;;;15.70;99.90;;;;;;4990482;28;20196;-75
2022/11/07 04:52:47;;;;;;;4.33;3.20;;;15.70;99.90;;;;;;5008457;28;20185;-75
2022/11/07 04:55:26;;;;;;;4.70;3.10;;;15.70;99.90;;;;;;5008009;28;20276;-75
2022/11/07 04:57:53;;;;;;;7.03;3.37;;;15.70;99.90;;;;;;5008862;28;20654;-75
2022/11/07 05:00:20;;;;;;;5.23;3.27;;;15.70;99.90;;;;;;5006813;28;20184;-75
2022/11/07 05:02:50;;;;;;;5.37;2.80;;;15.70;99.90;;;;;;4998043;28;20530;-75
2022/11/07 05:05:18;;;;;;;4.73;3.20;;;15.80;99.90;;;;;;5008556;28;20270;-76
2022/11/07 05:07:44;;;;;;;7.00;3.30;;;15.80;99.90;;;;;;5008816;28;20546;-75
2022/11/07 05:10:25;;;;;;;4.07;3.23;;;15.80;99.90;;;;;;5007027;28;20184;-75
2022/11/07 05:12:54;;;;;;;6.27;3.40;;;15.80;99.90;;;;;;5002016;28;20197;-75
2022/11/07 05:15:20;;;;;;;8.97;3.37;;;15.90;99.90;;;;;;4990499;28;20499;-76
2022/11/07 05:17:48;;;;;;;4.77;3.43;;;15.90;99.90;;;;;;4990273;28;20191;-75
2022/11/07 05:20:36;;;;;;;4.97;3.27;;;16.00;99.90;;;;;;5007969;28;20192;-76
2022/11/07 05:23:11;;;;;;;5.97;3.20;;;16.00;99.90;;;;;;5001324;28;20199;-75
2022/11/07 05:25:47;;;;;;;7.33;3.20;;;16.00;99.90;;;;;;4984263;28;20239;-76
2022/11/07 05:28:22;;;;;;;4.07;2.90;;;16.10;99.90;;;;;;5008462;28;20792;-75
2022/11/07 05:30:49;;;;;;;3.67;2.97;;;16.20;99.90;;;;;;4986361;28;20280;-76
2022/11/07 05:33:17;;;;;;;3.73;3.07;;;16.30;99.90;;;;;;5005377;28;20189;-76
2022/11/07 05:35:45;;;;;;;5.17;3.40;;;16.40;99.90;;;;;;4989952;28;20247;-76
2022/11/07 05:38:12;;;;;;;3.57;3.27;;;16.40;99.90;;;;;;5008188;28;20189;-75
2022/11/07 05:40:39;;;;;;;4.57;3.30;;;16.50;99.90;;;;;;5003577;28;20204;-76
2022/11/07 05:43:09;;;;;;;4.07;3.10;;;16.50;99.90;;;;;;5008014;28;20212;-75
2022/11/07 05:45:37;;;;;;;4.90;3.20;;;16.50;99.90;;;;;;5007556;28;20299;-76
2022/11/07 05:48:10;;;;;;;3.47;3.00;;;16.60;99.90;;;;;;5007701;28;20181;-75
2022/11/07 05:50:37;;;;;;;4.07;3.20;;;16.60;99.90;;;;;;4988929;28;20638;-75
2022/11/07 05:53:05;;;;;;;5.80;3.50;;;16.60;99.90;;;;;;4989157;28;20672;-76
2022/11/07 05:55:32;;;;;;;6.53;3.53;;;16.60;99.90;;;;;;5006400;28;20211;-75
2022/11/07 05:57:58;;;;;;;3.77;3.17;;;16.60;99.90;;;;;;5007904;28;20192;-75
2022/11/07 06:00:25;;;;;;;5.00;3.57;;;16.60;99.90;;;;;;4989359;28;20193;-75
2022/11/07 06:02:59;;;;;;;5.33;3.50;;;16.70;99.90;;;;;;5003595;28;20296;-75
2022/11/07 06:05:26;;;;;;;5.23;3.60;;;16.70;99.90;;;;;;5005323;28;20807;-75
2022/11/07 06:07:52;;;;;;;7.67;3.67;;;16.80;99.90;;;;;;5007809;28;20193;-75
2022/11/07 06:10:19;;;;;;;4.43;3.50;;;16.90;99.90;;;;;;5007647;28;20586;-76
2022/11/07 06:12:45;;;;;;;5.03;3.23;;;17.00;99.90;;;;;;5007089;28;20189;-75
2022/11/07 06:15:15;;;;;;;4.83;3.53;;;17.10;99.90;;;;;;5007130;28;20901;-76
2022/11/07 06:17:41;;;;;;;6.83;3.53;;;17.10;99.90;;;;;;4996070;28;20706;-75
2022/11/07 06:20:09;;;;;;;7.23;3.83;;;17.20;99.90;;;;;;5003171;28;20191;-75
2022/11/07 06:22:35;;;;;;;5.23;3.83;;;17.30;99.90;;;;;;5007347;28;20188;-75
2022/11/07 06:25:03;;;;;;;4.17;3.57;;;17.50;99.90;;;;;;5012051;28;20184;-75
2022/11/07 06:27:30;;;;;;;5.03;3.80;;;17.50;99.90;;;;;;5012368;28;20192;-75
2022/11/07 06:29:56;;;;;;;7.10;4.10;;;17.60;99.90;;;;;;5011814;28;20181;-75
2022/11/07 06:32:23;;;;;;;5.83;3.97;;;17.70;99.90;;;;;;5005069;28;20196;-75
2022/11/07 06:34:51;;;;;;;7.13;4.13;;;17.80;99.90;;;;;;4992587;28;20543;-76
2022/11/07 06:37:17;;;;;;;5.17;4.13;;;17.90;99.90;;;;;;4993555;28;20283;-75
2022/11/07 06:39:45;;;;;;;5.13;3.67;;;17.90;99.90;;;;;;4985096;28;20197;-75
2022/11/07 06:42:11;;;;;;;5.67;3.60;;;17.80;99.90;;;;;;5018320;28;20474;-75
2022/11/07 06:44:38;;;;;;;5.93;3.70;;;17.90;99.90;;;;;;4987148;28;20554;-75
2022/11/07 06:47:04;;;;;;;5.93;3.60;;;18.00;99.90;;;;;;5004451;28;20661;-75
2022/11/07 06:49:32;;;;;;;4.40;3.70;;;18.00;99.90;;;;;;5018913;28;20189;-76
2022/11/07 06:52:04;;;;;;;5.87;3.70;;;17.90;99.90;;;;;;5007723;28;20189;-75
2022/11/07 06:54:31;;;;;;;6.10;3.70;;;17.90;99.90;;;;;;5010987;28;20196;-76
2022/11/07 06:56:57;;;;;;;5.53;4.00;;;17.90;99.90;;;;;;5011174;28;20180;-75
2022/11/07 06:59:23;;;;;;;4.67;3.70;;;17.90;99.90;;;;;;5010791;28;20549;-76
2022/11/07 07:01:50;;;;;;;5.30;4.10;;;17.90;99.90;;;;;;4991391;28;20189;-76
2022/11/07 07:04:17;;;;;;;7.23;4.20;;;17.90;99.90;;;;;;4984155;28;20196;-75
2022/11/07 07:06:45;;;;;;;7.70;4.30;;;18.00;99.90;;;;;;5010657;28;20219;-75
2022/11/07 07:09:12;;;;;;;8.23;4.20;;;18.10;99.90;;;;;;4989410;28;20189;-76
2022/11/07 07:11:41;;;;;;;5.03;3.67;;;18.20;99.90;;;;;;5002519;28;20193;-75
2022/11/07 07:14:07;;;;;;;7.27;4.40;;;18.20;99.90;;;;;;4994704;28;20189;-75
2022/11/07 07:16:38;;;;;;;5.67;4.00;;;18.20;99.90;;;;;;5008313;28;20189;-75
2022/11/07 07:19:11;;;;;;;6.83;4.13;;;18.20;99.90;;;;;;5010778;28;20848;-76
2022/11/07 07:21:38;;;;;;;4.50;4.10;;;18.30;99.90;;;;;;5007388;28;20193;-76
2022/11/07 07:24:06;;;;;;;5.63;3.87;;;18.30;99.90;;;;;;4985142;28;20197;-75
2022/11/07 07:26:32;;;;;;;6.07;3.93;;;18.30;99.90;;;;;;5002859;28;20271;-75
2022/11/07 07:28:58;;;;;;;5.63;3.90;;;18.20;99.90;;;;;;4990741;28;20185;-76
2022/11/07 07:31:30;;;;;;;5.83;3.90;;;18.20;99.90;;;;;;5003270;28;20289;-75
2022/11/07 07:34:00;;;;;;;4.97;3.70;;;18.30;99.90;;;;;;4999728;28;20746;-76
2022/11/07 07:36:26;;;;;;;4.37;3.80;;;18.20;99.90;;;;;;5010612;28;20204;-75
2022/11/07 07:38:53;;;;;;;5.90;3.90;;;18.20;99.90;;;;;;4976333;28;20184;-75
2022/11/07 07:41:20;;;;;;;4.37;3.90;;;18.20;99.90;;;;;;5001573;28;20515;-75
2022/11/07 07:43:47;;;;;;;7.10;3.93;;;18.20;99.90;;;;;;5007014;28;20247;-76
2022/11/07 07:46:21;;;;;;;6.50;3.97;;;18.20;99.90;;;;;;4974511;28;20582;-76
2022/11/07 07:48:48;;;;;;;6.30;3.83;;;18.20;99.90;;;;;;4980493;28;20216;-75
2022/11/07 07:51:14;;;;;;;7.87;3.30;;;18.20;99.90;;;;;;4999547;28;20189;-75
2022/11/07 07:53:41;;;;;;;9.10;3.90;;;18.30;99.90;;;;;;4991126;28;20749;-75
2022/11/07 07:56:11;;;;;;;9.17;3.60;;;18.30;99.90;;;;;;5002707;28;20189;-76
2022/11/07 07:58:37;;;;;;;8.90;3.47;;;18.30;99.90;;;;;;5001625;28;20728;-76
2022/11/07 08:01:09;;;;;;;7.30;3.40;;;18.20;99.90;;;;;;4990432;28;20251;-76
2022/11/07 08:03:36;;;;;;;7.17;3.77;;;18.30;99.90;;;;;;4998328;28;20184;-76
2022/11/07 08:06:04;;;;;;;7.30;3.30;;;18.30;99.90;;;;;;5007643;28;20217;-75
2022/11/07 08:08:32;;;;;;;12.40;3.50;;;18.20;99.90;;;;;;5001302;28;20549;-76
2022/11/07 08:11:04;;;;;;;8.07;3.33;;;18.20;99.90;;;;;;5014603;28;20192;-76
2022/11/07 08:13:30;;;;;;;8.57;3.40;;;18.20;99.90;;;;;;5005245;28;20193;-76
2022/11/07 08:15:57;;;;;;;6.83;3.13;;;18.10;99.90;;;;;;5008859;28;20204;-76
2022/11/07 08:18:25;;;;;;;8.47;3.40;;;18.10;99.90;;;;;;5008172;28;20641;-75
2022/11/07 08:20:55;;;;;;;7.40;3.23;;;18.10;99.90;;;;;;5008908;28;20282;-75
2022/11/07 08:23:23;;;;;;;8.80;3.50;;;18.10;99.90;;;;;;5007729;28;20236;-75
2022/11/07 08:25:52;;;;;;;6.57;3.13;;;18.00;99.90;;;;;;5003907;28;20689;-75
2022/11/07 08:28:21;;;;;;;7.90;3.23;;;18.00;99.90;;;;;;4986768;28;20288;-75
2022/11/07 08:31:14;;;;;;;10.90;3.73;;;17.90;99.90;;;;;;5020907;28;20558;-76
2022/11/07 08:33:40;;;;;;;8.60;3.10;;;17.90;99.90;;;;;;4994655;28;20690;-76
2022/11/07 08:36:07;;;;;;;12.50;4.17;;;17.90;99.90;;;;;;5009309;28;20216;-75
2022/11/07 08:38:35;;;;;;;16.17;3.83;;;17.90;99.90;;;;;;5005748;28;20317;-75
2022/11/07 08:41:04;;;;;;;12.03;2.27;;;17.80;99.90;;;;;;5004414;28;20566;-75
2022/11/07 08:43:31;;;;;;;8.87;2.10;;;17.30;99.90;;;;;;5001205;28;20978;-75
2022/11/07 08:45:57;;;;;;;9.53;1.87;;;16.90;99.90;;;;;;5007848;28;20217;-75
2022/11/07 08:48:26;;;;;;;6.57;1.73;;;16.60;99.90;;;;;;5007783;28;20181;-76
2022/11/07 08:50:55;;;;;;;16.73;2.43;;;16.40;99.90;;;;;;4991971;28;20706;-75
2022/11/07 08:53:23;;;;;;;16.57;3.00;;;16.30;99.90;;;;;;4985876;28;20189;-75
2022/11/07 08:55:51;;;;;;;10.13;2.10;;;16.20;99.90;;;;;;5006135;28;20290;-75
2022/11/07 08:58:18;;;;;;;11.20;2.33;;;16.10;99.90;;;;;;5006938;28;20573;-75
2022/11/07 09:00:45;;;;;;;4.97;2.13;;;15.90;99.90;;;;;;4972945;28;20224;-75
2022/11/07 09:03:12;;;;;;;13.33;2.90;;;15.80;99.90;;;;;;4987988;28;20197;-75
2022/11/07 09:05:39;;;;;;;11.27;3.17;;;15.70;99.90;;;;;;4999133;28;20267;-75
2022/11/07 09:08:05;;;;;;;17.97;4.13;;;15.60;99.90;;;;;;4993837;28;20184;-76
2022/11/07 09:10:35;;;;;;;14.73;3.87;;;15.70;99.90;;;;;;5002556;28;20197;-76
2022/11/07 09:13:03;;;;;;;18.20;2.80;;;15.70;99.90;;;;;;5006083;28;20201;-76
2022/11/07 09:15:29;;;;;;;10.40;2.37;;;15.60;99.90;;;;;;5003270;28;20395;-76
2022/11/07 09:18:02;;;;;;;10.80;3.03;;;15.50;99.90;;;;;;4973489;28;20216;-77
2022/11/07 09:20:29;;;;;;;5.83;1.43;;;15.40;99.90;;;;;;4990353;28;20275;-77
2022/11/07 09:22:58;;;;;;;2.87;1.03;;;15.40;99.90;;;;;;5007061;28;20193;-77
2022/11/07 09:25:26;;;;;;;2.17;1.30;;;15.20;99.90;;;;;;4999727;28;20272;-77
2022/11/07 09:27:54;;;;;;;2.07;1.20;;;15.20;99.90;;;;;;4992010;28;20200;-77
2022/11/07 09:30:22;;;;;;;2.90;1.37;;;15.20;99.90;;;;;;5007280;28;20201;-76
2022/11/07 09:32:48;;;;;;;3.13;1.30;;;14.90;99.90;;;;;;5002945;28;20189;-76
2022/11/07 09:35:14;;;;;;;2.80;1.20;;;15.10;99.90;;;;;;5006569;28;20207;-76
2022/11/07 09:37:42;;;;;;;1.90;1.07;;;15.10;99.90;;;;;;4989313;28;20196;-76
2022/11/07 09:40:51;;;;;;;2.07;1.40;;;15.00;99.90;;;;;;5015641;28;20193;-76
2022/11/07 09:44:10;;;;;;;6.00;1.30;;;15.00;99.90;;;;;;4969319;28;20204;-76
2022/11/07 09:47:13;;;;;;;2.77;1.50;;;15.00;99.90;;;;;;5007870;28;20213;-77
2022/11/07 09:49:59;;;;;;;3.07;1.67;;;15.00;99.90;;;;;;4998250;28;20193;-76
2022/11/07 09:52:36;;;;;;;6.10;1.80;;;15.20;99.90;;;;;;5006166;28;20201;-77
2022/11/07 09:55:18;;;;;;;8.87;1.90;;;15.10;99.90;;;;;;5004118;28;20189;-76
2022/11/07 09:57:46;;;;;;;5.77;2.20;;;15.10;99.90;;;;;;4984366;28;20196;-76
2022/11/07 10:00:19;;;;;;;11.07;2.13;;;15.10;99.90;;;;;;5019387;28;20531;-76
2022/11/07 10:02:54;;;;;;;5.37;2.10;;;15.10;99.90;;;;;;4986836;28;20219;-76
2022/11/07 10:05:56;;;;;;;10.20;2.10;;;15.00;99.90;;;;;;5000518;28;20219;-76
2022/11/07 10:09:10;;;;;;;9.83;2.40;;;14.80;99.90;;;;;;4999563;28;20200;-76
2022/11/07 10:12:19;;;;;;;5.77;2.03;;;14.90;99.90;;;;;;5003848;28;20192;-76
2022/11/07 10:15:09;;;;;;;4.80;2.27;;;14.80;99.90;;;;;;5005085;28;20268;-76
2022/11/07 10:18:00;;;;;;;6.57;2.40;;;14.90;99.90;;;;;;4993844;28;20694;-76
2022/11/07 10:20:32;;;;;;;6.90;2.73;;;14.90;99.90;;;;;;4989267;28;20188;-76
2022/11/07 10:23:29;;;;;;;8.50;2.97;;;15.00;99.90;;;;;;4996015;28;20200;-76
2022/11/07 10:26:08;;;;;;;7.63;2.40;;;15.10;99.90;;;;;;5009337;28;20227;-76
2022/11/07 10:28:53;;;;;;;5.93;2.47;;;15.00;99.90;;;;;;5007518;28;20192;-76
2022/11/07 10:31:20;;;;;;;3.57;2.33;;;15.20;99.90;;;;;;5019711;28;20219;-76
2022/11/07 10:34:05;;;;;;;4.73;1.90;;;15.30;99.90;;;;;;4988893;28;20204;-76
2022/11/07 10:36:33;;;;;;;5.60;2.40;;;15.40;99.90;;;;;;5003792;28;20559;-76
2022/11/07 10:39:00;;;;;;;4.27;1.93;;;15.40;99.90;;;;;;5010106;28;20185;-76
2022/11/07 10:41:30;;;;;;;3.83;2.20;;;15.50;99.90;;;;;;5002867;28;20201;-76
2022/11/07 10:44:15;;;;;;;3.70;2.30;;;15.50;99.90;;;;;;5004277;28;20201;-76
2022/11/07 10:46:46;;;;;;;4.90;2.17;;;15.60;99.90;;;;;;5002643;28;20631;-76
2022/11/07 10:49:24;;;;;;;5.60;2.47;;;15.70;99.90;;;;;;5009731;28;20235;-76
2022/11/07 10:51:51;;;;;;;4.20;2.27;;;15.80;99.90;;;;;;5007815;28;20643;-76
2022/11/07 10:54:30;;;;;;;2.73;1.80;;;15.80;99.90;;;;;;5009869;28;20275;-76
2022/11/07 10:57:11;;;;;;;6.00;2.43;;;15.70;99.90;;;;;;5011158;28;20204;-76
2022/11/07 10:59:56;;;;;;;3.00;2.00;;;15.70;99.90;;;;;;4986247;28;20211;-76
2022/11/07 11:02:51;;;;;;;7.27;2.20;;;15.70;99.90;;;;;;5005832;28;20786;-76
2022/11/07 11:05:45;;;;;;;3.03;1.77;;;15.70;99.90;;;;;;4996973;28;20209;-76
2022/11/07 11:08:20;;;;;;;2.33;1.83;;;15.70;99.90;;;;;;4988644;28;20185;-76
2022/11/07 11:10:47;;;;;;;4.10;1.80;;;15.60;99.90;;;;;;5010521;28;20196;-76
2022/11/07 11:13:32;;;;;;;3.57;2.00;;;15.60;99.90;;;;;;4989620;28;20192;-76
2022/11/07 11:16:27;;;;;;;4.57;1.90;;;15.70;99.90;;;;;;5013907;28;20682;-77
2022/11/07 11:18:58;;;;;;;4.60;1.93;;;15.70;99.90;;;;;;5005531;28;20199;-76
2022/11/07 11:21:25;;;;;;;4.33;1.73;;;15.50;99.90;;;;;;5008895;28;20195;-76
2022/11/07 11:23:53;;;;;;;3.37;1.80;;;15.60;99.90;;;;;;4988078;28;20717;-76
2022/11/07 11:26:37;;;;;;;5.40;2.07;;;15.50;99.90;;;;;;5009164;28;20213;-76
2022/11/07 11:29:20;;;;;;;5.10;2.30;;;15.60;99.90;;;;;;5006863;28;20220;-76
2022/11/07 11:31:51;;;;;;;2.87;2.07;;;15.70;99.90;;;;;;5008642;28;20978;-76
2022/11/07 11:34:43;;;;;;;7.03;2.10;;;15.70;99.90;;;;;;5006510;28;20193;-77
2022/11/07 11:37:18;;;;;;;3.83;2.10;;;15.70;99.90;;;;;;5008674;28;20191;-76
2022/11/07 11:39:58;;;;;;;4.23;1.93;;;15.70;99.90;;;;;;5009738;28;20347;-77
2022/11/07 11:42:49;;;;;;;2.97;1.63;;;15.60;99.90;;;;;;5009189;28;20197;-77
2022/11/07 11:45:34;;;;;;;4.33;1.80;;;15.70;99.90;;;;;;4990410;28;20590;-76
2022/11/07 11:48:16;;;;;;;6.37;2.10;;;15.80;99.90;;;;;;4984006;28;20192;-76
2022/11/07 11:50:51;;;;;;;3.00;1.80;;;15.80;99.90;;;;;;4990557;28;20193;-76
2022/11/07 11:53:21;;;;;;;2.83;2.07;;;15.90;99.90;;;;;;4999095;28;20223;-76
2022/11/07 11:56:00;;;;;;;3.83;2.20;;;16.00;99.90;;;;;;5010642;28;20252;-77
2022/11/07 11:58:39;;;;;;;6.90;2.40;;;16.00;99.90;;;;;;5011962;28;20212;-76
2022/11/07 12:01:36;;;;;;;4.20;2.20;;;16.10;99.90;;;;;;4986496;28;20192;-76
2022/11/07 12:04:22;;;;;;;4.40;2.50;;;16.10;99.90;;;;;;5003238;28;20289;-76
2022/11/07 12:07:33;;;;;;;7.93;2.30;;;16.20;99.90;;;;;;5020688;28;20371;-76
2022/11/07 12:10:33;;;;;;;7.80;2.30;;;16.10;99.90;;;;;;4991360;28;20191;-76
2022/11/07 12:13:38;;;;;;;3.40;2.40;;;16.00;99.90;;;;;;4981555;28;20196;-76
2022/11/07 12:16:44;;;;;;;3.73;2.43;;;16.00;99.90;;;;;;5007478;28;20203;-77
2022/11/07 12:19:42;;;;;;;4.40;2.40;;;16.00;99.90;;;;;;5011230;28;20219;-76
2022/11/07 12:22:46;;;;;;;4.30;2.70;;;16.00;99.90;;;;;;5015492;28;20287;-77
2022/11/07 12:25:45;;;;;;;3.70;2.37;;;16.00;99.90;;;;;;4977282;28;20208;-76
2022/11/07 12:29:21;;;;;;;7.77;2.43;;;15.90;99.90;;;;;;5006756;28;20684;-76
2022/11/07 12:32:32;;;;;;;4.90;2.63;;;15.80;99.90;;;;;;4941246;28;20247;-76
2022/11/07 12:35:22;;;;;;;4.13;2.73;;;15.80;99.90;;;;;;4994129;28;20258;-77
2022/11/07 12:38:14;;;;;;;4.03;2.40;;;15.80;99.90;;;;;;5026914;28;20181;-76
2022/11/07 12:41:01;;;;;;;5.83;2.87;;;15.90;99.90;;;;;;4968109;28;20624;-76
2022/11/07 12:43:55;;;;;;;6.70;2.60;;;15.90;99.90;;;;;;5004060;28;20180;-77
2022/11/07 12:46:35;;;;;;;7.43;3.40;;;16.00;99.90;;;;;;5011441;28;20225;-76
2022/11/07 12:49:43;;;;;;;4.67;2.27;;;16.00;99.90;;;;;;5015808;28;20551;-76
2022/11/07 12:52:30;;;;;;;4.60;2.40;;;16.00;99.90;;;;;;5019893;28;20226;-76
2022/11/07 12:55:36;;;;;;;4.13;2.47;;;16.00;99.90;;;;;;5009688;28;20235;-77
2022/11/07 12:58:06;;;;;;;10.60;3.17;;;16.00;99.90;;;;;;4985795;28;20832;-76
2022/11/07 13:00:35;;;;;;;5.50;2.53;;;16.00;99.90;;;;;;5005770;28;20495;-76
2022/11/07 13:03:30;;;;;;;7.37;3.03;;;16.00;99.90;;;;;;5008361;28;20194;-77
2022/11/07 13:06:35;;;;;;;5.10;2.80;;;15.90;99.90;;;;;;5011759;28;20216;-77
2022/11/07 13:09:23;;;;;;;6.53;2.60;;;15.90;99.90;;;;;;5006557;28;20194;-77
2022/11/07 13:11:59;;;;;;;4.30;2.73;;;15.90;99.90;;;;;;4989416;28;20267;-77
2022/11/07 13:14:38;;;;;;;6.07;2.80;;;15.90;99.90;;;;;;5012037;28;20188;-77
2022/11/07 13:17:22;;;;;;;8.17;3.23;;;15.90;99.90;;;;;;5006928;28;20192;-77
2022/11/07 13:20:25;;;;;;;5.53;2.80;;;15.70;99.90;;;;;;5001142;28;20262;-77
2022/11/07 13:22:55;;;;;;;6.37;2.80;;;15.60;99.90;;;;;;5007984;28;20275;-77
2022/11/07 13:25:33;;;;;;;6.90;3.13;;;15.60;99.90;;;;;;5006861;28;20704;-76
2022/11/07 13:28:27;;;;;;;6.83;2.80;;;15.60;99.90;;;;;;5018972;28;20811;-76
2022/11/07 13:30:57;;;;;;;7.20;3.00;;;15.60;99.90;;;;;;5015923;28;20219;-77